createdAt,value
2023-04-23T00:00:58.727Z,20.50
2023-04-23T00:01:58.724Z,19.10
2023-04-23T00:02:58.869Z,19.20
2023-04-23T00:03:58.922Z,20.70
2023-04-23T00:04:58.863Z,20.00
2023-04-23T00:05:58.684Z,22.80
2023-04-23T00:06:58.706Z,19.10
2023-04-23T00:07:58.671Z,19.70
2023-04-23T00:08:58.667Z,19.40
2023-04-23T00:09:58.621Z,19.40
2023-04-23T00:10:58.634Z,20.30
2023-04-23T00:11:58.604Z,20.00
2023-04-23T00:12:59.374Z,20.40
2023-04-23T00:13:58.570Z,20.30
2023-04-23T00:14:58.566Z,20.10
2023-04-23T00:15:58.594Z,20.00
2023-04-23T00:16:58.585Z,20.10
2023-04-23T00:17:58.575Z,21.60
2023-04-23T00:18:58.515Z,20.90
2023-04-23T00:19:58.541Z,20.80
2023-04-23T00:20:58.524Z,21.20
2023-04-23T00:21:58.480Z,19.60
2023-04-23T00:22:58.470Z,19.90
2023-04-23T00:23:58.458Z,20.70
2023-04-23T00:24:58.457Z,20.40
2023-04-23T00:25:58.727Z,20.00
2023-04-23T00:26:58.442Z,21.10
2023-04-23T00:27:58.410Z,20.40
2023-04-23T00:28:58.418Z,20.70
2023-04-23T00:29:58.433Z,20.20
2023-04-23T00:30:58.397Z,19.90
2023-04-23T00:31:58.447Z,21.60
2023-04-23T00:32:58.455Z,20.80
2023-04-23T00:33:58.354Z,20.30
2023-04-23T00:34:58.371Z,23.20
2023-04-23T00:35:58.393Z,20.40
2023-04-23T00:36:58.324Z,20.60
2023-04-23T00:37:58.315Z,22.40
2023-04-23T00:38:58.317Z,21.20
2023-04-23T00:39:58.292Z,22.30
2023-04-23T00:40:58.289Z,22.00
2023-04-23T00:41:58.283Z,24.60
2023-04-23T00:42:58.267Z,21.90
2023-04-23T00:43:58.248Z,22.00
2023-04-23T00:44:58.243Z,23.80
2023-04-23T00:45:58.393Z,20.40
2023-04-23T00:46:58.224Z,21.50
2023-04-23T00:47:58.228Z,21.90
2023-04-23T00:48:58.201Z,21.20
2023-04-23T00:49:58.210Z,22.70
2023-04-23T00:50:58.205Z,24.60
2023-04-23T00:51:58.180Z,22.40
2023-04-23T00:52:58.161Z,25.20
2023-04-23T00:53:58.161Z,21.60
2023-04-23T00:54:58.160Z,21.60
2023-04-23T00:55:58.150Z,23.70
2023-04-23T00:56:58.119Z,22.60
2023-04-23T00:57:58.107Z,21.90
2023-04-23T00:58:58.124Z,22.70
2023-04-23T00:59:58.143Z,22.70
2023-04-23T01:00:58.154Z,21.80
2023-04-23T01:01:58.073Z,22.30
2023-04-23T01:02:58.223Z,22.90
2023-04-23T01:03:58.235Z,21.10
2023-04-23T01:04:58.025Z,21.00
2023-04-23T01:05:58.030Z,22.20
2023-04-23T01:06:58.039Z,22.10
2023-04-23T01:07:57.994Z,22.80
2023-04-23T01:08:57.998Z,21.20
2023-04-23T01:09:57.985Z,20.40
2023-04-23T01:10:57.963Z,20.40
2023-04-23T01:11:57.964Z,20.50
2023-04-23T01:12:57.933Z,22.70
2023-04-23T01:13:57.930Z,23.80
2023-04-23T01:15:18.985Z,22.60
2023-04-23T01:15:57.908Z,20.10
2023-04-23T01:16:57.968Z,21.20
2023-04-23T01:17:57.990Z,24.10
2023-04-23T01:18:57.888Z,23.20
2023-04-23T01:19:57.856Z,21.10
2023-04-23T01:20:57.972Z,21.00
2023-04-23T01:21:57.833Z,21.40
2023-04-23T01:22:57.875Z,20.50
2023-04-23T01:23:57.815Z,22.90
2023-04-23T01:24:57.809Z,21.60
2023-04-23T01:25:57.802Z,21.70
2023-04-23T01:26:57.787Z,21.30
2023-04-23T01:27:57.766Z,22.40
2023-04-23T01:28:57.771Z,22.20
2023-04-23T01:29:57.760Z,21.70
2023-04-23T01:30:57.809Z,21.40
2023-04-23T01:31:57.729Z,22.00
2023-04-23T01:32:57.785Z,21.80
2023-04-23T01:33:57.702Z,21.70
2023-04-23T01:34:57.709Z,21.80
2023-04-23T01:35:57.729Z,22.30
2023-04-23T01:36:57.682Z,21.40
2023-04-23T01:37:57.690Z,22.00
2023-04-23T01:38:57.677Z,23.00
2023-04-23T01:39:57.646Z,21.50
2023-04-23T01:40:57.650Z,23.30
2023-04-23T01:41:57.678Z,23.80
2023-04-23T01:42:57.611Z,24.20
2023-04-23T01:43:57.614Z,23.30
2023-04-23T01:44:57.582Z,22.30
2023-04-23T01:45:57.610Z,24.00
2023-04-23T01:46:57.596Z,22.00
2023-04-23T01:47:57.659Z,22.40
2023-04-23T01:48:57.541Z,23.90
2023-04-23T01:49:57.544Z,24.60
2023-04-23T01:50:57.536Z,25.90
2023-04-23T01:51:57.510Z,24.90
2023-04-23T01:52:57.519Z,24.20
2023-04-23T01:53:57.497Z,25.40
2023-04-23T01:54:57.515Z,25.40
2023-04-23T01:55:57.483Z,25.50
2023-04-23T01:56:57.465Z,25.80
2023-04-23T01:57:57.487Z,26.00
2023-04-23T01:58:57.468Z,28.90
2023-04-23T01:59:57.423Z,27.10
2023-04-23T02:00:57.417Z,28.60
2023-04-23T02:01:57.548Z,27.60
2023-04-23T02:02:57.500Z,27.40
2023-04-23T02:03:57.500Z,27.50
2023-04-23T02:04:57.443Z,29.20
2023-04-23T02:05:57.527Z,28.80
2023-04-23T02:06:57.349Z,31.00
2023-04-23T02:07:57.459Z,30.30
2023-04-23T02:08:57.352Z,27.30
2023-04-23T02:09:57.309Z,30.20
2023-04-23T02:10:57.313Z,29.10
2023-04-23T02:11:57.298Z,29.40
2023-04-23T02:12:57.278Z,28.30
2023-04-23T02:13:57.381Z,28.20
2023-04-23T02:14:57.255Z,27.50
2023-04-23T02:15:57.273Z,32.00
2023-04-23T02:16:57.249Z,30.90
2023-04-23T02:17:57.266Z,32.00
2023-04-23T02:18:57.266Z,31.70
2023-04-23T02:19:57.275Z,31.30
2023-04-23T02:20:57.244Z,30.40
2023-04-23T02:21:57.228Z,32.50
2023-04-23T02:22:57.230Z,31.30
2023-04-23T02:23:57.237Z,30.30
2023-04-23T02:24:57.188Z,31.80
2023-04-23T02:25:57.207Z,32.10
2023-04-23T02:26:57.166Z,29.90
2023-04-23T02:27:57.276Z,32.90
2023-04-23T02:28:57.202Z,33.00
2023-04-23T02:29:57.119Z,30.50
2023-04-23T02:30:57.117Z,34.00
2023-04-23T02:31:57.197Z,31.40
2023-04-23T02:32:57.147Z,31.40
2023-04-23T02:33:57.072Z,32.30
2023-04-23T02:34:57.046Z,31.20
2023-04-23T02:35:57.084Z,32.10
2023-04-23T02:36:57.028Z,31.90
2023-04-23T02:37:57.031Z,34.30
2023-04-23T02:38:57.001Z,33.10
2023-04-23T02:39:56.999Z,32.20
2023-04-23T02:40:57.002Z,32.40
2023-04-23T02:41:56.971Z,33.90
2023-04-23T02:42:56.959Z,32.20
2023-04-23T02:43:56.947Z,32.20
2023-04-23T02:44:56.940Z,33.50
2023-04-23T02:45:56.960Z,34.40
2023-04-23T02:46:57.042Z,31.30
2023-04-23T02:47:56.948Z,32.60
2023-04-23T02:48:56.901Z,32.20
2023-04-23T02:49:56.877Z,31.50
2023-04-23T02:50:56.966Z,29.80
2023-04-23T02:51:56.853Z,29.30
2023-04-23T02:52:56.860Z,30.60
2023-04-23T02:53:56.831Z,30.30
2023-04-23T02:54:56.831Z,33.60
2023-04-23T02:55:56.820Z,31.80
2023-04-23T02:56:56.823Z,33.70
2023-04-23T02:57:56.849Z,30.70
2023-04-23T02:58:56.783Z,35.00
2023-04-23T02:59:56.776Z,34.30
2023-04-23T03:00:56.799Z,31.90
2023-04-23T03:01:56.800Z,37.90
2023-04-23T03:02:56.872Z,34.70
2023-04-23T03:03:56.895Z,33.10
2023-04-23T03:04:56.733Z,31.50
2023-04-23T03:05:56.797Z,32.50
2023-04-23T03:06:56.708Z,31.60
2023-04-23T03:07:56.695Z,33.70
2023-04-23T03:08:56.702Z,36.40
2023-04-23T03:09:56.659Z,33.30
2023-04-23T03:10:56.658Z,33.00
2023-04-23T03:11:56.640Z,32.70
2023-04-23T03:12:56.632Z,34.90
2023-04-23T03:13:56.614Z,35.80
2023-04-23T03:14:56.642Z,34.40
2023-04-23T03:15:56.618Z,33.50
2023-04-23T03:16:56.639Z,34.90
2023-04-23T03:17:56.604Z,33.90
2023-04-23T03:18:56.568Z,34.70
2023-04-23T03:19:56.558Z,35.20
2023-04-23T03:20:56.580Z,34.80
2023-04-23T03:21:56.525Z,35.30
2023-04-23T03:22:56.528Z,35.70
2023-04-23T03:23:56.544Z,35.80
2023-04-23T03:24:56.514Z,37.40
2023-04-23T03:25:56.505Z,36.70
2023-04-23T03:26:56.490Z,34.30
2023-04-23T03:27:56.470Z,35.50
2023-04-23T03:28:56.489Z,35.90
2023-04-23T03:29:56.475Z,33.20
2023-04-23T03:30:56.490Z,36.20
2023-04-23T03:31:56.422Z,36.50
2023-04-23T03:32:56.442Z,35.70
2023-04-23T03:33:56.398Z,35.90
2023-04-23T03:34:56.396Z,35.60
2023-04-23T03:35:56.401Z,33.90
2023-04-23T03:36:56.381Z,32.80
2023-04-23T03:37:56.381Z,34.80
2023-04-23T03:38:56.423Z,34.70
2023-04-23T03:39:56.351Z,36.70
2023-04-23T03:40:56.344Z,34.90
2023-04-23T03:41:56.329Z,37.30
2023-04-23T03:42:56.307Z,37.10
2023-04-23T03:43:56.328Z,34.50
2023-04-23T03:44:56.324Z,34.50
2023-04-23T03:45:56.357Z,35.80
2023-04-23T03:46:56.285Z,33.60
2023-04-23T03:47:56.298Z,34.60
2023-04-23T03:48:56.235Z,33.30
2023-04-23T03:49:56.272Z,36.60
2023-04-23T03:50:56.234Z,34.90
2023-04-23T03:51:56.219Z,30.20
2023-04-23T03:52:56.194Z,31.00
2023-04-23T03:53:56.194Z,33.70
2023-04-23T03:54:56.177Z,34.70
2023-04-23T03:55:56.220Z,33.00
2023-04-23T03:56:56.169Z,36.50
2023-04-23T03:57:56.155Z,35.00
2023-04-23T03:58:56.131Z,36.20
2023-04-23T03:59:56.126Z,37.50
2023-04-23T04:00:56.120Z,37.10
2023-04-23T04:01:56.136Z,36.60
2023-04-23T04:02:56.211Z,36.80
2023-04-23T04:03:56.314Z,36.90
2023-04-23T04:04:56.354Z,39.10
2023-04-23T04:05:56.078Z,35.00
2023-04-23T04:06:56.150Z,37.20
2023-04-23T04:07:56.055Z,37.50
2023-04-23T04:08:56.023Z,36.30
2023-04-23T04:09:56.037Z,35.10
2023-04-23T04:10:56.037Z,35.60
2023-04-23T04:11:56.078Z,33.80
2023-04-23T04:12:55.983Z,35.70
2023-04-23T04:13:55.995Z,31.20
2023-04-23T04:14:55.970Z,32.60
2023-04-23T04:15:56.047Z,31.20
2023-04-23T04:16:55.941Z,30.20
2023-04-23T04:17:56.001Z,31.70
2023-04-23T04:18:56.672Z,33.20
2023-04-23T04:19:55.912Z,28.80
2023-04-23T04:20:55.916Z,29.20
2023-04-23T04:21:55.882Z,26.80
2023-04-23T04:22:55.873Z,26.50
2023-04-23T04:23:55.870Z,26.70
2023-04-23T04:24:55.860Z,27.30
2023-04-23T04:25:55.887Z,28.40
2023-04-23T04:26:55.830Z,25.00
2023-04-23T04:27:55.828Z,25.70
2023-04-23T04:28:55.821Z,25.40
2023-04-23T04:29:55.840Z,24.00
2023-04-23T04:30:55.801Z,23.40
2023-04-23T04:31:55.799Z,25.50
2023-04-23T04:32:55.824Z,21.50
2023-04-23T04:33:55.764Z,26.50
2023-04-23T04:34:55.748Z,25.70
2023-04-23T04:35:55.829Z,23.80
2023-04-23T04:36:55.770Z,24.00
2023-04-23T04:37:55.805Z,23.50
2023-04-23T04:38:55.707Z,22.10
2023-04-23T04:39:55.706Z,22.40
2023-04-23T04:40:55.712Z,23.10
2023-04-23T04:41:55.670Z,22.10
2023-04-23T04:42:55.649Z,21.70
2023-04-23T04:43:55.671Z,22.20
2023-04-23T04:44:55.633Z,21.70
2023-04-23T04:45:55.699Z,24.20
2023-04-23T04:46:55.688Z,21.90
2023-04-23T04:47:55.616Z,21.30
2023-04-23T04:48:55.581Z,23.10
2023-04-23T04:49:55.591Z,21.60
2023-04-23T04:50:55.599Z,21.20
2023-04-23T04:51:55.556Z,21.80
2023-04-23T04:52:55.582Z,21.30
2023-04-23T04:53:55.543Z,25.50
2023-04-23T04:54:55.525Z,21.10
2023-04-23T04:55:55.533Z,19.90
2023-04-23T04:56:55.568Z,19.90
2023-04-23T04:57:55.495Z,21.00
2023-04-23T04:58:55.481Z,17.90
2023-04-23T04:59:55.489Z,18.10
2023-04-23T05:00:55.518Z,17.70
2023-04-23T05:01:55.507Z,17.60
2023-04-23T05:02:55.555Z,17.30
2023-04-23T05:03:55.596Z,16.80
2023-04-23T05:04:55.423Z,16.10
2023-04-23T05:05:55.426Z,15.50
2023-04-23T05:06:55.404Z,14.20
2023-04-23T05:07:55.422Z,14.60
2023-04-23T05:08:55.376Z,14.40
2023-04-23T05:09:55.384Z,14.10
2023-04-23T05:10:55.388Z,13.80
2023-04-23T05:11:55.345Z,14.00
2023-04-23T05:12:55.362Z,14.60
2023-04-23T05:13:55.356Z,14.40
2023-04-23T05:14:55.340Z,12.80
2023-04-23T05:15:55.337Z,13.70
2023-04-23T05:16:55.315Z,13.00
2023-04-23T05:17:55.348Z,14.20
2023-04-23T05:18:55.282Z,12.40
2023-04-23T05:19:55.273Z,12.10
2023-04-23T05:20:55.265Z,10.80
2023-04-23T05:21:55.240Z,11.20
2023-04-23T05:22:55.241Z,10.40
2023-04-23T05:23:55.233Z,10.40
2023-04-23T05:24:55.201Z,10.60
2023-04-23T05:25:55.211Z,12.50
2023-04-23T05:26:55.192Z,10.20
2023-04-23T05:27:55.175Z,10.80
2023-04-23T05:28:55.163Z,10.60
2023-04-23T05:29:55.156Z,10.30
2023-04-23T05:30:55.164Z,10.00
2023-04-23T05:31:55.160Z,9.20
2023-04-23T05:32:55.204Z,10.20
2023-04-23T05:33:55.126Z,10.70
2023-04-23T05:34:55.159Z,12.00
2023-04-23T05:35:55.306Z,10.90
2023-04-23T05:36:55.070Z,9.50
2023-04-23T05:37:55.068Z,10.00
2023-04-23T05:38:55.048Z,11.90
2023-04-23T05:39:55.030Z,9.30
2023-04-23T05:40:55.042Z,9.60
2023-04-23T05:41:55.004Z,9.30
2023-04-23T05:42:55.034Z,11.00
2023-04-23T05:43:55.116Z,9.20
2023-04-23T05:44:55.013Z,10.60
2023-04-23T05:45:55.096Z,9.70
2023-04-23T05:46:54.998Z,8.80
2023-04-23T05:47:55.002Z,9.20
2023-04-23T05:48:54.942Z,10.40
2023-04-23T05:49:54.937Z,8.50
2023-04-23T05:50:54.917Z,8.60
2023-04-23T05:51:54.898Z,9.00
2023-04-23T05:52:54.898Z,8.80
2023-04-23T05:53:54.892Z,9.10
2023-04-23T05:54:54.882Z,8.90
2023-04-23T05:55:54.860Z,8.90
2023-04-23T05:56:54.875Z,9.70
2023-04-23T05:57:54.835Z,9.30
2023-04-23T05:58:54.829Z,9.90
2023-04-23T05:59:54.835Z,10.50
2023-04-23T06:00:54.870Z,7.60
2023-04-23T06:01:54.795Z,8.80
2023-04-23T06:02:54.897Z,9.30
2023-04-23T06:03:55.150Z,8.10
2023-04-23T06:04:55.070Z,7.80
2023-04-23T06:05:54.840Z,8.60
2023-04-23T06:06:54.782Z,9.70
2023-04-23T06:07:54.761Z,8.10
2023-04-23T06:08:54.747Z,9.20
2023-04-23T06:09:54.794Z,7.50
2023-04-23T06:10:54.725Z,9.40
2023-04-23T06:11:54.688Z,8.60
2023-04-23T06:12:54.702Z,7.70
2023-04-23T06:13:54.675Z,7.50
2023-04-23T06:14:54.700Z,8.30
2023-04-23T06:15:54.756Z,6.50
2023-04-23T06:16:54.642Z,7.80
2023-04-23T06:17:54.678Z,6.70
2023-04-23T06:18:54.627Z,7.20
2023-04-23T06:19:55.086Z,7.60
2023-04-23T06:20:54.696Z,8.80
2023-04-23T06:21:54.560Z,6.90
2023-04-23T06:22:54.564Z,9.40
2023-04-23T06:23:54.586Z,6.10
2023-04-23T06:24:54.561Z,6.90
2023-04-23T06:25:54.543Z,7.50
2023-04-23T06:26:54.573Z,7.00
2023-04-23T06:27:54.647Z,7.20
2023-04-23T06:28:54.499Z,6.30
2023-04-23T06:29:54.520Z,6.70
2023-04-23T06:30:54.498Z,7.10
2023-04-23T06:31:54.557Z,7.90
2023-04-23T06:32:54.495Z,5.80
2023-04-23T06:33:54.431Z,5.90
2023-04-23T06:35:00.933Z,7.20
2023-04-23T06:35:55.424Z,6.00
2023-04-23T06:36:54.420Z,6.30
2023-04-23T06:37:54.400Z,6.30
2023-04-23T06:38:54.410Z,7.30
2023-04-23T06:39:54.371Z,7.60
2023-04-23T06:40:54.372Z,6.70
2023-04-23T06:41:54.375Z,5.80
2023-04-23T06:42:54.379Z,6.90
2023-04-23T06:43:54.326Z,8.10
2023-04-23T06:44:54.314Z,8.60
2023-04-23T06:45:54.347Z,8.60
2023-04-23T06:46:54.319Z,8.00
2023-04-23T06:47:54.317Z,6.20
2023-04-23T06:48:54.269Z,7.60
2023-04-23T06:49:54.308Z,8.30
2023-04-23T06:50:54.248Z,5.70
2023-04-23T06:51:55.808Z,7.60
2023-04-23T06:52:54.225Z,7.20
2023-04-23T06:53:54.228Z,5.80
2023-04-23T06:54:54.196Z,7.50
2023-04-23T06:55:54.331Z,5.80
2023-04-23T06:56:54.213Z,6.60
2023-04-23T06:57:54.165Z,7.10
2023-04-23T06:58:54.162Z,5.10
2023-04-23T06:59:54.150Z,5.70
2023-04-23T07:00:54.177Z,5.90
2023-04-23T07:01:54.124Z,6.70
2023-04-23T07:02:54.192Z,8.00
2023-04-23T07:03:54.136Z,5.60
2023-04-23T07:04:54.114Z,7.90
2023-04-23T07:05:54.095Z,5.40
2023-04-23T07:06:54.120Z,6.70
2023-04-23T07:07:54.072Z,5.20
2023-04-23T07:08:54.051Z,5.80
2023-04-23T07:09:54.063Z,8.40
2023-04-23T07:10:54.044Z,7.20
2023-04-23T07:11:54.046Z,5.10
2023-04-23T07:12:54.044Z,6.30
2023-04-23T07:13:54.059Z,8.00
2023-04-23T07:14:54.015Z,6.70
2023-04-23T07:15:54.055Z,6.90
2023-04-23T07:16:54.080Z,5.30
2023-04-23T07:17:53.995Z,5.00
2023-04-23T07:18:53.974Z,6.10
2023-04-23T07:19:54.049Z,4.90
2023-04-23T07:20:53.933Z,6.70
2023-04-23T07:21:54.041Z,5.00
2023-04-23T07:22:53.925Z,4.10
2023-04-23T07:23:53.910Z,5.60
2023-04-23T07:24:53.900Z,6.20
2023-04-23T07:25:53.952Z,6.30
2023-04-23T07:26:53.886Z,4.10
2023-04-23T07:27:53.864Z,4.10
2023-04-23T07:28:53.848Z,3.80
2023-04-23T07:29:53.854Z,4.10
2023-04-23T07:30:53.844Z,3.90
2023-04-23T07:31:53.972Z,4.50
2023-04-23T07:32:53.877Z,4.30
2023-04-23T07:33:53.806Z,6.60
2023-04-23T07:34:53.820Z,4.30
2023-04-23T07:35:53.831Z,4.40
2023-04-23T07:36:53.833Z,3.90
2023-04-23T07:37:53.776Z,3.40
2023-04-23T07:38:53.745Z,4.80
2023-04-23T07:39:53.754Z,3.30
2023-04-23T07:40:53.733Z,4.60
2023-04-23T07:41:53.715Z,3.30
2023-04-23T07:42:53.752Z,6.00
2023-04-23T07:43:53.697Z,4.40
2023-04-23T07:44:53.696Z,5.60
2023-04-23T07:45:53.718Z,4.20
2023-04-23T07:46:53.661Z,3.90
2023-04-23T07:47:53.660Z,5.80
2023-04-23T07:48:53.658Z,3.60
2023-04-23T07:49:53.635Z,4.30
2023-04-23T07:50:53.652Z,3.00
2023-04-23T07:51:53.622Z,3.80
2023-04-23T07:52:53.601Z,5.00
2023-04-23T07:53:53.592Z,6.50
2023-04-23T07:54:53.580Z,3.50
2023-04-23T07:55:53.562Z,4.90
2023-04-23T07:56:53.596Z,4.00
2023-04-23T07:57:53.537Z,3.40
2023-04-23T07:58:53.534Z,4.30
2023-04-23T07:59:53.558Z,3.30
2023-04-23T08:00:53.579Z,3.80
2023-04-23T08:01:53.499Z,3.10
2023-04-23T08:02:53.675Z,3.50
2023-04-23T08:03:53.737Z,4.00
2023-04-23T08:04:53.852Z,3.30
2023-04-23T08:05:53.508Z,2.50
2023-04-23T08:06:53.470Z,4.50
2023-04-23T08:07:53.451Z,4.50
2023-04-23T08:08:53.460Z,5.00
2023-04-23T08:09:53.425Z,4.30
2023-04-23T08:10:53.409Z,3.90
2023-04-23T08:11:53.399Z,4.40
2023-04-23T08:12:53.509Z,5.70
2023-04-23T08:13:53.465Z,5.90
2023-04-23T08:14:53.406Z,5.30
2023-04-23T08:15:53.391Z,4.60
2023-04-23T08:16:53.339Z,4.20
2023-04-23T08:17:53.436Z,3.00
2023-04-23T08:19:04.044Z,4.30
2023-04-23T08:19:54.305Z,3.70
2023-04-23T08:20:53.329Z,3.50
2023-04-23T08:21:53.292Z,6.60
2023-04-23T08:22:53.300Z,5.00
2023-04-23T08:23:53.260Z,5.70
2023-04-23T08:24:53.234Z,3.30
2023-04-23T08:25:53.246Z,3.50
2023-04-23T08:26:53.226Z,3.60
2023-04-23T08:27:53.214Z,4.40
2023-04-23T08:28:53.207Z,3.40
2023-04-23T08:29:53.233Z,4.30
2023-04-23T08:30:53.182Z,3.40
2023-04-23T08:31:53.205Z,4.50
2023-04-23T08:32:53.176Z,7.20
2023-04-23T08:33:53.175Z,4.90
2023-04-23T08:34:53.152Z,5.90
2023-04-23T08:35:53.151Z,3.40
2023-04-23T08:36:53.106Z,6.20
2023-04-23T08:37:53.111Z,6.80
2023-04-23T08:38:53.103Z,5.80
2023-04-23T08:39:53.096Z,5.60
2023-04-23T08:40:53.075Z,6.10
2023-04-23T08:41:53.112Z,3.80
2023-04-23T08:42:53.052Z,3.80
2023-04-23T08:43:53.043Z,6.10
2023-04-23T08:44:53.024Z,4.50
2023-04-23T08:45:53.030Z,5.10
2023-04-23T08:46:53.038Z,4.50
2023-04-23T08:47:53.054Z,6.10
2023-04-23T08:48:53.020Z,3.60
2023-04-23T08:49:53.000Z,4.70
2023-04-23T08:50:53.026Z,3.50
2023-04-23T08:51:52.973Z,3.80
2023-04-23T08:52:52.945Z,3.40
2023-04-23T08:53:52.939Z,5.50
2023-04-23T08:54:52.991Z,3.40
2023-04-23T08:55:52.923Z,3.40
2023-04-23T08:56:52.913Z,4.20
2023-04-23T08:57:52.905Z,5.40
2023-04-23T08:58:53.686Z,2.80
2023-04-23T08:59:52.887Z,6.80
2023-04-23T09:00:52.888Z,4.20
2023-04-23T09:01:52.951Z,4.90
2023-04-23T09:02:53.057Z,3.20
2023-04-23T09:03:52.964Z,5.60
2023-04-23T09:04:54.833Z,2.90
2023-04-23T09:05:52.818Z,6.10
2023-04-23T09:06:52.795Z,4.50
2023-04-23T09:07:52.811Z,3.50
2023-04-23T09:08:52.773Z,6.20
2023-04-23T09:09:52.774Z,5.00
2023-04-23T09:10:52.752Z,4.40
2023-04-23T09:11:54.758Z,2.50
2023-04-23T09:12:52.726Z,4.50
2023-04-23T09:13:52.770Z,4.30
2023-04-23T09:14:52.706Z,4.30
2023-04-23T09:15:52.713Z,4.30
2023-04-23T09:16:52.768Z,5.00
2023-04-23T09:17:52.728Z,5.20
2023-04-23T09:18:52.707Z,4.50
2023-04-23T09:19:52.666Z,3.60
2023-04-23T09:20:52.654Z,3.90
2023-04-23T09:21:52.640Z,4.60
2023-04-23T09:22:52.744Z,6.00
2023-04-23T09:23:52.664Z,5.00
2023-04-23T09:24:52.609Z,3.70
2023-04-23T09:25:52.630Z,3.80
2023-04-23T09:26:52.586Z,3.20
2023-04-23T09:27:52.606Z,8.10
2023-04-23T09:28:52.558Z,4.90
2023-04-23T09:29:52.567Z,6.20
2023-04-23T09:30:52.539Z,2.70
2023-04-23T09:31:52.542Z,5.50
2023-04-23T09:32:52.550Z,4.80
2023-04-23T09:33:52.516Z,5.00
2023-04-23T09:34:52.509Z,3.70
2023-04-23T09:35:52.563Z,3.90
2023-04-23T09:36:52.483Z,3.60
2023-04-23T09:37:52.509Z,5.00
2023-04-23T09:38:52.481Z,3.10
2023-04-23T09:39:52.453Z,2.80
2023-04-23T09:40:52.452Z,6.00
2023-04-23T09:41:52.426Z,3.70
2023-04-23T09:42:52.430Z,3.70
2023-04-23T09:43:52.420Z,5.90
2023-04-23T09:44:52.410Z,4.10
2023-04-23T09:45:52.427Z,3.50
2023-04-23T09:46:52.370Z,2.90
2023-04-23T09:47:52.443Z,4.90
2023-04-23T09:48:52.356Z,3.90
2023-04-23T09:49:52.346Z,4.80
2023-04-23T09:50:52.339Z,4.80
2023-04-23T09:51:52.325Z,3.00
2023-04-23T09:52:52.306Z,4.20
2023-04-23T09:53:52.302Z,7.10
2023-04-23T09:54:52.324Z,5.20
2023-04-23T09:55:52.277Z,3.20
2023-04-23T09:56:52.274Z,2.80
2023-04-23T09:57:52.265Z,3.40
2023-04-23T09:58:52.279Z,5.00
2023-04-23T09:59:57.444Z,3.60
2023-04-23T10:00:53.289Z,3.10
2023-04-23T10:01:52.225Z,3.90
2023-04-23T10:02:52.348Z,3.10
2023-04-23T10:03:52.377Z,2.30
2023-04-23T10:04:56.349Z,3.80
2023-04-23T10:06:01.294Z,3.70
2023-04-23T10:07:02.368Z,3.80
2023-04-23T10:07:53.158Z,3.80
2023-04-23T10:08:52.164Z,4.00
2023-04-23T10:09:52.136Z,3.20
2023-04-23T10:11:06.004Z,5.00
2023-04-23T10:11:53.102Z,3.20
2023-04-23T10:12:55.382Z,3.20
2023-04-23T10:13:52.084Z,2.30
2023-04-23T10:14:52.066Z,1.20
2023-04-23T10:15:52.122Z,3.50
2023-04-23T10:16:52.108Z,4.60
2023-04-23T10:17:52.204Z,3.40
2023-04-23T10:18:52.036Z,3.30
2023-04-23T10:19:52.083Z,4.30
2023-04-23T10:20:52.013Z,4.20
2023-04-23T10:21:56.146Z,6.50
2023-04-23T10:22:52.977Z,3.10
2023-04-23T10:23:51.969Z,4.70
2023-04-23T10:24:52.003Z,2.80
2023-04-23T10:25:51.950Z,4.10
2023-04-23T10:26:51.945Z,3.80
2023-04-23T10:27:54.467Z,4.80
2023-04-23T10:28:51.920Z,3.90
2023-04-23T10:29:51.920Z,4.20
2023-04-23T10:30:52.019Z,2.40
2023-04-23T10:31:51.890Z,3.40
2023-04-23T10:32:52.097Z,4.60
2023-04-23T10:33:58.965Z,4.10
2023-04-23T10:34:52.873Z,4.80
2023-04-23T10:35:51.866Z,5.20
2023-04-23T10:36:51.835Z,3.40
2023-04-23T10:37:51.829Z,1.70
2023-04-23T10:38:57.906Z,2.80
2023-04-23T10:39:52.810Z,2.40
2023-04-23T10:40:51.844Z,2.60
2023-04-23T10:41:51.783Z,5.50
2023-04-23T10:42:51.779Z,3.40
2023-04-23T10:43:51.763Z,4.40
2023-04-23T10:44:59.399Z,2.90
2023-04-23T10:45:52.740Z,3.30
2023-04-23T10:46:51.765Z,2.70
2023-04-23T10:47:51.764Z,2.10
2023-04-23T10:48:51.711Z,3.00
2023-04-23T10:49:51.719Z,2.80
2023-04-23T10:51:09.150Z,2.20
2023-04-23T10:52:51.741Z,2.90
2023-04-23T10:53:51.757Z,3.60
2023-04-23T10:54:51.635Z,4.50
2023-04-23T10:55:51.648Z,4.60
2023-04-23T10:56:51.626Z,4.10
2023-04-23T10:57:51.627Z,4.50
2023-04-23T10:58:51.645Z,3.00
2023-04-23T10:59:51.597Z,2.30
2023-04-23T11:00:51.603Z,3.30
2023-04-23T11:01:51.759Z,3.90
2023-04-23T11:02:51.667Z,5.70
2023-04-23T11:03:51.660Z,5.40
2023-04-23T11:04:51.550Z,2.80
2023-04-23T11:05:51.603Z,4.60
2023-04-23T11:06:51.507Z,3.30
2023-04-23T11:07:51.500Z,3.80
2023-04-23T11:08:51.537Z,3.40
2023-04-23T11:09:51.514Z,4.00
2023-04-23T11:10:51.507Z,4.10
2023-04-23T11:11:51.466Z,3.20
2023-04-23T11:12:51.440Z,2.10
2023-04-23T11:13:51.436Z,3.10
2023-04-23T11:14:51.435Z,2.80
2023-04-23T11:15:51.431Z,1.60
2023-04-23T11:16:51.541Z,5.40
2023-04-23T11:17:51.473Z,1.80
2023-04-23T11:18:51.376Z,3.70
2023-04-23T11:19:51.602Z,2.20
2023-04-23T11:20:51.360Z,4.60
2023-04-23T11:21:51.345Z,3.90
2023-04-23T11:22:51.383Z,4.30
2023-04-23T11:23:51.332Z,5.30
2023-04-23T11:24:51.329Z,4.30
2023-04-23T11:25:51.322Z,3.40
2023-04-23T11:26:51.345Z,3.50
2023-04-23T11:27:51.283Z,2.20
2023-04-23T11:28:51.267Z,3.70
2023-04-23T11:29:51.278Z,2.70
2023-04-23T11:30:51.266Z,4.20
2023-04-23T11:32:01.773Z,2.10
2023-04-23T11:32:52.539Z,2.90
2023-04-23T11:33:51.264Z,5.10
2023-04-23T11:34:51.212Z,3.70
2023-04-23T11:35:51.225Z,3.60
2023-04-23T11:36:51.218Z,3.10
2023-04-23T11:37:51.187Z,2.80
2023-04-23T11:38:51.195Z,3.00
2023-04-23T11:39:51.157Z,3.30
2023-04-23T11:40:51.187Z,5.20
2023-04-23T11:41:51.147Z,3.80
2023-04-23T11:42:51.159Z,2.60
2023-04-23T11:43:51.132Z,2.70
2023-04-23T11:44:51.149Z,4.40
2023-04-23T11:45:51.163Z,3.80
2023-04-23T11:46:51.093Z,3.90
2023-04-23T11:47:51.110Z,4.10
2023-04-23T11:48:51.074Z,2.80
2023-04-23T11:49:51.062Z,3.80
2023-04-23T11:50:51.083Z,3.60
2023-04-23T11:51:51.045Z,4.50
2023-04-23T11:52:51.017Z,2.40
2023-04-23T11:53:51.026Z,2.30
2023-04-23T11:54:51.095Z,5.80
2023-04-23T11:55:51.008Z,4.10
2023-04-23T11:56:50.978Z,2.70
2023-04-23T11:57:51.035Z,5.60
2023-04-23T11:58:50.959Z,5.20
2023-04-23T11:59:50.964Z,3.80
2023-04-23T12:00:50.930Z,2.90
2023-04-23T12:01:50.929Z,3.90
2023-04-23T12:02:51.005Z,4.40
2023-04-23T12:03:50.984Z,4.70
2023-04-23T12:04:50.930Z,2.40
2023-04-23T12:05:50.890Z,3.60
2023-04-23T12:06:50.888Z,3.10
2023-04-23T12:07:50.862Z,5.80
2023-04-23T12:08:50.865Z,3.90
2023-04-23T12:09:50.862Z,5.50
2023-04-23T12:10:50.829Z,3.50
2023-04-23T12:11:50.854Z,4.20
2023-04-23T12:12:50.817Z,2.70
2023-04-23T12:13:50.812Z,4.60
2023-04-23T12:14:50.801Z,4.20
2023-04-23T12:15:50.795Z,5.00
2023-04-23T12:16:50.790Z,3.70
2023-04-23T12:17:50.852Z,3.90
2023-04-23T12:18:50.744Z,3.10
2023-04-23T12:19:50.760Z,3.90
2023-04-23T12:20:50.727Z,2.30
2023-04-23T12:21:50.747Z,3.60
2023-04-23T12:22:50.772Z,3.40
2023-04-23T12:23:50.705Z,4.80
2023-04-23T12:24:50.730Z,3.50
2023-04-23T12:25:50.680Z,4.70
2023-04-23T12:26:50.694Z,3.30
2023-04-23T12:27:50.674Z,2.00
2023-04-23T12:28:50.785Z,2.70
2023-04-23T12:29:50.706Z,3.30
2023-04-23T12:30:50.624Z,5.10
2023-04-23T12:31:50.891Z,2.80
2023-04-23T12:32:50.665Z,5.60
2023-04-23T12:33:50.602Z,2.50
2023-04-23T12:34:50.593Z,2.80
2023-04-23T12:35:50.621Z,3.70
2023-04-23T12:36:50.573Z,2.30
2023-04-23T12:37:50.556Z,4.20
2023-04-23T12:38:50.550Z,3.10
2023-04-23T12:39:50.556Z,3.20
2023-04-23T12:40:50.531Z,5.00
2023-04-23T12:41:50.514Z,2.30
2023-04-23T12:42:50.551Z,2.80
2023-04-23T12:43:50.495Z,3.40
2023-04-23T12:44:50.513Z,2.80
2023-04-23T12:45:50.471Z,4.30
2023-04-23T12:46:50.529Z,3.00
2023-04-23T12:47:50.576Z,3.30
2023-04-23T12:48:50.459Z,3.30
2023-04-23T12:49:50.441Z,4.30
2023-04-23T12:50:50.419Z,2.10
2023-04-23T12:51:50.431Z,2.80
2023-04-23T12:52:50.403Z,5.40
2023-04-23T12:53:50.389Z,4.50
2023-04-23T12:54:50.423Z,2.40
2023-04-23T12:55:50.399Z,4.10
2023-04-23T12:56:50.390Z,3.30
2023-04-23T12:57:50.382Z,2.60
2023-04-23T12:58:50.412Z,2.40
2023-04-23T12:59:50.344Z,2.60
2023-04-23T13:00:50.332Z,2.70
2023-04-23T13:01:50.377Z,6.00
2023-04-23T13:02:50.613Z,3.30
2023-04-23T13:03:50.373Z,2.20
2023-04-23T13:04:50.308Z,2.50
2023-04-23T13:05:50.267Z,2.50
2023-04-23T13:06:50.292Z,2.50
2023-04-23T13:07:50.252Z,3.40
2023-04-23T13:08:50.232Z,3.00